sensor_id;sensor_type;location;lat;lon;timestamp;temperature;humidity
949;DHT22;461;51.436;7.312;2024-03-22T00:10:38;13.00;99.90
949;DHT22;461;51.436;7.312;2024-03-22T00:13:04;13.00;99.90
949;DHT22;461;51.436;7.312;2024-03-22T00:15:29;13.00;99.90
949;DHT22;461;51.436;7.312;2024-03-22T00:17:55;12.90;99.90
949;DHT22;461;51.436;7.312;2024-03-22T00:20:21;12.90;99.90
949;DHT22;461;51.436;7.312;2024-03-22T00:22:46;12.90;99.90
949;DHT22;461;51.436;7.312;2024-03-22T00:25:12;12.90;99.90
949;DHT22;461;51.436;7.312;2024-03-22T00:37:44;13.10;99.90
949;DHT22;461;51.436;7.312;2024-03-22T00:40:10;13.30;99.90
949;DHT22;461;51.436;7.312;2024-03-22T00:42:36;13.20;99.90
949;DHT22;461;51.436;7.312;2024-03-22T00:45:01;13.30;99.90
949;DHT22;461;51.436;7.312;2024-03-22T00:47:27;13.20;99.90
949;DHT22;461;51.436;7.312;2024-03-22T00:49:53;13.20;99.90
949;DHT22;461;51.436;7.312;2024-03-22T00:52:18;13.10;99.90
949;DHT22;461;51.436;7.312;2024-03-22T00:54:44;13.20;99.90
949;DHT22;461;51.436;7.312;2024-03-22T00:57:10;13.20;99.90
949;DHT22;461;51.436;7.312;2024-03-22T00:59:35;13.20;99.90
949;DHT22;461;51.436;7.312;2024-03-22T01:02:01;13.20;99.90
949;DHT22;461;51.436;7.312;2024-03-22T01:14:52;13.40;99.90
949;DHT22;461;51.436;7.312;2024-03-22T01:17:17;13.40;99.90
949;DHT22;461;51.436;7.312;2024-03-22T01:19:43;13.40;99.90
949;DHT22;461;51.436;7.312;2024-03-22T01:22:09;13.30;99.90
949;DHT22;461;51.436;7.312;2024-03-22T01:24:34;13.40;99.90
949;DHT22;461;51.436;7.312;2024-03-22T01:27:00;13.40;99.90
949;DHT22;461;51.436;7.312;2024-03-22T01:29:26;13.50;99.90
949;DHT22;461;51.436;7.312;2024-03-22T01:31:55;13.60;99.90
949;DHT22;461;51.436;7.312;2024-03-22T01:34:21;13.60;99.90
949;DHT22;461;51.436;7.312;2024-03-22T01:36:47;13.60;99.90
949;DHT22;461;51.436;7.312;2024-03-22T01:39:12;13.60;99.90
949;DHT22;461;51.436;7.312;2024-03-22T01:41:39;13.70;99.90
949;DHT22;461;51.436;7.312;2024-03-22T01:44:05;13.70;99.90
949;DHT22;461;51.436;7.312;2024-03-22T01:46:31;13.70;99.90
949;DHT22;461;51.436;7.312;2024-03-22T01:48:57;13.80;99.90
949;DHT22;461;51.436;7.312;2024-03-22T01:51:23;13.80;99.90
949;DHT22;461;51.436;7.312;2024-03-22T01:53:49;13.80;99.90
949;DHT22;461;51.436;7.312;2024-03-22T01:56:15;13.70;99.90
949;DHT22;461;51.436;7.312;2024-03-22T01:58:41;13.70;99.90
949;DHT22;461;51.436;7.312;2024-03-22T02:11:13;13.90;99.90
949;DHT22;461;51.436;7.312;2024-03-22T02:13:39;13.90;99.90
949;DHT22;461;51.436;7.312;2024-03-22T02:16:05;13.90;99.90
949;DHT22;461;51.436;7.312;2024-03-22T02:18:31;14.00;99.90
949;DHT22;461;51.436;7.312;2024-03-22T02:20:57;14.00;99.90
949;DHT22;461;51.436;7.312;2024-03-22T02:23:43;13.90;99.90
949;DHT22;461;51.436;7.312;2024-03-22T02:26:09;13.90;99.90
949;DHT22;461;51.436;7.312;2024-03-22T02:28:35;13.80;99.90
949;DHT22;461;51.436;7.312;2024-03-22T02:31:02;13.80;99.90
949;DHT22;461;51.436;7.312;2024-03-22T02:33:28;13.80;99.90
949;DHT22;461;51.436;7.312;2024-03-22T02:35:54;13.80;99.90
949;DHT22;461;51.436;7.312;2024-03-22T02:38:19;13.90;99.90
949;DHT22;461;51.436;7.312;2024-03-22T02:40:47;13.90;99.90
949;DHT22;461;51.436;7.312;2024-03-22T02:50:16;13.90;99.90
949;DHT22;461;51.436;7.312;2024-03-22T02:52:42;14.00;99.90
949;DHT22;461;51.436;7.312;2024-03-22T02:55:07;14.00;99.90
949;DHT22;461;51.436;7.312;2024-03-22T02:57:33;14.00;99.90
949;DHT22;461;51.436;7.312;2024-03-22T03:00:02;14.10;99.90
949;DHT22;461;51.436;7.312;2024-03-22T03:02:29;14.00;99.90
949;DHT22;461;51.436;7.312;2024-03-22T03:04:54;14.00;99.90
949;DHT22;461;51.436;7.312;2024-03-22T03:07:20;14.10;99.90
949;DHT22;461;51.436;7.312;2024-03-22T03:09:46;14.10;99.90
949;DHT22;461;51.436;7.312;2024-03-22T03:12:11;14.10;99.90
949;DHT22;461;51.436;7.312;2024-03-22T03:14:37;14.00;99.90
949;DHT22;461;51.436;7.312;2024-03-22T03:17:03;13.90;99.90
949;DHT22;461;51.436;7.312;2024-03-22T03:19:29;14.00;99.90
949;DHT22;461;51.436;7.312;2024-03-22T03:21:54;13.90;99.90
949;DHT22;461;51.436;7.312;2024-03-22T03:24:20;14.00;99.90
949;DHT22;461;51.436;7.312;2024-03-22T03:26:46;13.90;99.90
949;DHT22;461;51.436;7.312;2024-03-22T03:29:11;13.90;99.90
949;DHT22;461;51.436;7.312;2024-03-22T03:31:37;13.90;99.90
949;DHT22;461;51.436;7.312;2024-03-22T03:34:03;14.00;99.90
949;DHT22;461;51.436;7.312;2024-03-22T03:36:28;14.10;99.90
949;DHT22;461;51.436;7.312;2024-03-22T03:38:54;14.20;99.90
949;DHT22;461;51.436;7.312;2024-03-22T03:41:20;14.10;99.90
949;DHT22;461;51.436;7.312;2024-03-22T03:50:29;14.10;99.90
949;DHT22;461;51.436;7.312;2024-03-22T03:52:55;14.00;99.90
949;DHT22;461;51.436;7.312;2024-03-22T03:55:22;14.10;99.90
949;DHT22;461;51.436;7.312;2024-03-22T03:57:50;14.10;99.90
949;DHT22;461;51.436;7.312;2024-03-22T04:00:17;14.10;99.90
949;DHT22;461;51.436;7.312;2024-03-22T04:02:43;14.10;99.90
949;DHT22;461;51.436;7.312;2024-03-22T04:05:08;14.10;99.90
949;DHT22;461;51.436;7.312;2024-03-22T04:07:34;14.10;99.90
949;DHT22;461;51.436;7.312;2024-03-22T04:10:00;14.20;99.90
949;DHT22;461;51.436;7.312;2024-03-22T04:12:26;14.20;99.90
949;DHT22;461;51.436;7.312;2024-03-22T04:14:52;14.10;99.90
949;DHT22;461;51.436;7.312;2024-03-22T04:17:18;14.20;99.90
949;DHT22;461;51.436;7.312;2024-03-22T04:19:44;14.10;99.90
949;DHT22;461;51.436;7.312;2024-03-22T04:22:09;14.20;99.90
949;DHT22;461;51.436;7.312;2024-03-22T04:24:35;14.10;99.90
949;DHT22;461;51.436;7.312;2024-03-22T04:27:01;14.10;99.90
949;DHT22;461;51.436;7.312;2024-03-22T04:29:27;14.10;99.90
949;DHT22;461;51.436;7.312;2024-03-22T04:31:53;14.10;99.90
949;DHT22;461;51.436;7.312;2024-03-22T04:34:18;14.00;99.90
949;DHT22;461;51.436;7.312;2024-03-22T04:36:44;14.00;99.90
949;DHT22;461;51.436;7.312;2024-03-22T04:39:10;13.90;99.90
949;DHT22;461;51.436;7.312;2024-03-22T04:41:37;14.00;99.90
949;DHT22;461;51.436;7.312;2024-03-22T04:44:03;14.00;99.90
949;DHT22;461;51.436;7.312;2024-03-22T04:46:29;14.10;99.90
949;DHT22;461;51.436;7.312;2024-03-22T04:48:54;14.00;99.90
949;DHT22;461;51.436;7.312;2024-03-22T04:51:20;13.90;99.90
949;DHT22;461;51.436;7.312;2024-03-22T04:53:46;14.00;99.90
949;DHT22;461;51.436;7.312;2024-03-22T04:56:11;13.90;99.90
949;DHT22;461;51.436;7.312;2024-03-22T04:58:37;13.90;99.90
949;DHT22;461;51.436;7.312;2024-03-22T05:01:03;13.90;99.90
949;DHT22;461;51.436;7.312;2024-03-22T05:03:29;14.00;99.90
949;DHT22;461;51.436;7.312;2024-03-22T05:05:56;14.00;99.90
949;DHT22;461;51.436;7.312;2024-03-22T05:15:07;14.00;99.90
949;DHT22;461;51.436;7.312;2024-03-22T05:17:33;14.00;99.90
949;DHT22;461;51.436;7.312;2024-03-22T05:19:59;14.00;99.90
949;DHT22;461;51.436;7.312;2024-03-22T05:22:25;14.00;99.90
949;DHT22;461;51.436;7.312;2024-03-22T05:24:51;14.00;99.90
949;DHT22;461;51.436;7.312;2024-03-22T05:27:19;14.00;99.90
949;DHT22;461;51.436;7.312;2024-03-22T05:29:45;14.00;99.90
949;DHT22;461;51.436;7.312;2024-03-22T05:32:11;14.00;99.90
949;DHT22;461;51.436;7.312;2024-03-22T05:34:36;14.10;99.90
949;DHT22;461;51.436;7.312;2024-03-22T05:37:02;14.10;99.90
949;DHT22;461;51.436;7.312;2024-03-22T05:39:28;14.10;99.90
949;DHT22;461;51.436;7.312;2024-03-22T05:41:54;14.00;99.90
949;DHT22;461;51.436;7.312;2024-03-22T05:44:23;14.10;99.90
949;DHT22;461;51.436;7.312;2024-03-22T05:46:49;14.00;99.90
949;DHT22;461;51.436;7.312;2024-03-22T05:49:15;14.10;99.90
949;DHT22;461;51.436;7.312;2024-03-22T05:51:41;14.20;99.90
949;DHT22;461;51.436;7.312;2024-03-22T05:54:06;14.30;99.90
949;DHT22;461;51.436;7.312;2024-03-22T05:56:33;14.20;99.90
949;DHT22;461;51.436;7.312;2024-03-22T05:58:58;14.10;99.90
949;DHT22;461;51.436;7.312;2024-03-22T06:01:25;14.30;99.90
949;DHT22;461;51.436;7.312;2024-03-22T06:03:51;14.30;99.90
949;DHT22;461;51.436;7.312;2024-03-22T06:06:16;14.40;99.90
949;DHT22;461;51.436;7.312;2024-03-22T06:08:43;14.30;99.90
949;DHT22;461;51.436;7.312;2024-03-22T06:11:10;14.40;99.90
949;DHT22;461;51.436;7.312;2024-03-22T06:13:36;14.30;99.90
949;DHT22;461;51.436;7.312;2024-03-22T06:16:02;14.40;99.90
949;DHT22;461;51.436;7.312;2024-03-22T06:18:29;14.50;99.90
949;DHT22;461;51.436;7.312;2024-03-22T06:20:54;14.60;99.90
949;DHT22;461;51.436;7.312;2024-03-22T06:23:21;14.70;99.90
949;DHT22;461;51.436;7.312;2024-03-22T06:25:54;14.50;99.90
949;DHT22;461;51.436;7.312;2024-03-22T06:28:20;14.50;99.90
949;DHT22;461;51.436;7.312;2024-03-22T06:30:45;14.60;99.90
949;DHT22;461;51.436;7.312;2024-03-22T06:33:11;14.60;99.90
949;DHT22;461;51.436;7.312;2024-03-22T06:35:37;14.70;99.90
949;DHT22;461;51.436;7.312;2024-03-22T06:38:02;14.70;99.90
949;DHT22;461;51.436;7.312;2024-03-22T06:40:30;14.70;99.90
949;DHT22;461;51.436;7.312;2024-03-22T06:42:56;14.70;99.90
949;DHT22;461;51.436;7.312;2024-03-22T06:45:21;14.80;99.90
949;DHT22;461;51.436;7.312;2024-03-22T06:47:47;14.90;99.90
949;DHT22;461;51.436;7.312;2024-03-22T06:50:13;14.90;99.90
949;DHT22;461;51.436;7.312;2024-03-22T06:52:39;15.00;99.90
949;DHT22;461;51.436;7.312;2024-03-22T06:55:05;15.00;99.90
949;DHT22;461;51.436;7.312;2024-03-22T06:57:32;14.90;99.90
949;DHT22;461;51.436;7.312;2024-03-22T06:59:59;15.00;99.90
949;DHT22;461;51.436;7.312;2024-03-22T07:02:26;15.10;99.90
949;DHT22;461;51.436;7.312;2024-03-22T07:04:51;15.00;99.90
949;DHT22;461;51.436;7.312;2024-03-22T07:07:18;15.20;99.90
949;DHT22;461;51.436;7.312;2024-03-22T07:16:28;15.10;99.90
949;DHT22;461;51.436;7.312;2024-03-22T07:18:53;15.10;99.90
949;DHT22;461;51.436;7.312;2024-03-22T07:21:19;15.20;99.90
949;DHT22;461;51.436;7.312;2024-03-22T07:23:45;15.10;99.90
949;DHT22;461;51.436;7.312;2024-03-22T07:26:10;15.20;99.90
949;DHT22;461;51.436;7.312;2024-03-22T07:28:36;15.30;99.90
949;DHT22;461;51.436;7.312;2024-03-22T07:31:02;15.30;99.90
949;DHT22;461;51.436;7.312;2024-03-22T07:33:28;15.30;99.90
949;DHT22;461;51.436;7.312;2024-03-22T07:36:15;15.20;99.90
949;DHT22;461;51.436;7.312;2024-03-22T07:52:25;16.40;99.90
949;DHT22;461;51.436;7.312;2024-03-22T07:59:43;16.70;99.90
949;DHT22;461;51.436;7.312;2024-03-22T08:21:31;16.40;99.90
949;DHT22;461;51.436;7.312;2024-03-22T09:02:46;17.10;99.90
949;DHT22;461;51.436;7.312;2024-03-22T09:05:13;16.60;99.90
949;DHT22;461;51.436;7.312;2024-03-22T09:41:43;17.30;99.90
949;DHT22;461;51.436;7.312;2024-03-22T10:40:05;17.80;99.90
949;DHT22;461;51.436;7.312;2024-03-22T10:42:35;18.60;99.90
949;DHT22;461;51.436;7.312;2024-03-22T10:45:02;18.60;99.90
949;DHT22;461;51.436;7.312;2024-03-22T10:55:10;18.40;99.90
949;DHT22;461;51.436;7.312;2024-03-22T10:57:38;18.40;99.90
949;DHT22;461;51.436;7.312;2024-03-22T11:00:09;18.30;99.90
949;DHT22;461;51.436;7.312;2024-03-22T11:02:37;18.20;99.90
949;DHT22;461;51.436;7.312;2024-03-22T11:05:06;18.00;99.90
949;DHT22;461;51.436;7.312;2024-03-22T11:07:32;18.00;99.90
949;DHT22;461;51.436;7.312;2024-03-22T11:10:00;17.90;99.90
949;DHT22;461;51.436;7.312;2024-03-22T11:12:28;18.00;99.90
949;DHT22;461;51.436;7.312;2024-03-22T11:14:58;17.90;99.90
949;DHT22;461;51.436;7.312;2024-03-22T11:17:24;18.00;99.90
949;DHT22;461;51.436;7.312;2024-03-22T11:19:51;18.00;99.90
949;DHT22;461;51.436;7.312;2024-03-22T11:22:17;18.00;99.90
949;DHT22;461;51.436;7.312;2024-03-22T11:24:43;18.00;99.90
949;DHT22;461;51.436;7.312;2024-03-22T11:27:10;18.00;99.90
949;DHT22;461;51.436;7.312;2024-03-22T11:29:37;18.20;99.90
949;DHT22;461;51.436;7.312;2024-03-22T11:32:06;18.10;99.90
949;DHT22;461;51.436;7.312;2024-03-22T11:51:38;18.20;99.90
949;DHT22;461;51.436;7.312;2024-03-22T11:54:05;18.50;99.90
949;DHT22;461;51.436;7.312;2024-03-22T11:56:35;18.50;99.90
949;DHT22;461;51.436;7.312;2024-03-22T11:59:01;18.40;99.90
949;DHT22;461;51.436;7.312;2024-03-22T12:01:28;18.60;99.90
949;DHT22;461;51.436;7.312;2024-03-22T12:03:54;18.60;99.90
949;DHT22;461;51.436;7.312;2024-03-22T12:06:21;18.50;99.90
949;DHT22;461;51.436;7.312;2024-03-22T12:08:47;18.50;99.90
949;DHT22;461;51.436;7.312;2024-03-22T12:11:13;18.30;99.90
949;DHT22;461;51.436;7.312;2024-03-22T12:13:40;18.30;99.90
949;DHT22;461;51.436;7.312;2024-03-22T12:18:35;18.30;99.90
949;DHT22;461;51.436;7.312;2024-03-22T12:21:01;18.40;99.90
949;DHT22;461;51.436;7.312;2024-03-22T12:23:26;18.30;99.90
949;DHT22;461;51.436;7.312;2024-03-22T12:28:20;18.30;99.90
949;DHT22;461;51.436;7.312;2024-03-22T12:30:46;18.20;99.90
949;DHT22;461;51.436;7.312;2024-03-22T12:33:12;18.20;99.90
949;DHT22;461;51.436;7.312;2024-03-22T12:35:39;18.00;99.90
949;DHT22;461;51.436;7.312;2024-03-22T12:38:05;17.80;99.90
949;DHT22;461;51.436;7.312;2024-03-22T12:40:31;17.80;99.90
949;DHT22;461;51.436;7.312;2024-03-22T12:42:59;17.80;99.90
949;DHT22;461;51.436;7.312;2024-03-22T12:45:25;17.70;99.90
949;DHT22;461;51.436;7.312;2024-03-22T12:47:51;17.60;99.90
949;DHT22;461;51.436;7.312;2024-03-22T12:50:18;17.40;99.90
949;DHT22;461;51.436;7.312;2024-03-22T12:52:43;17.40;99.90
949;DHT22;461;51.436;7.312;2024-03-22T12:55:10;17.50;99.90
949;DHT22;461;51.436;7.312;2024-03-22T12:57:36;17.50;99.90
949;DHT22;461;51.436;7.312;2024-03-22T13:00:02;17.60;99.90
949;DHT22;461;51.436;7.312;2024-03-22T13:02:29;17.40;99.90
949;DHT22;461;51.436;7.312;2024-03-22T13:04:57;17.20;99.90
949;DHT22;461;51.436;7.312;2024-03-22T13:07:23;17.20;99.90
949;DHT22;461;51.436;7.312;2024-03-22T13:09:50;17.10;99.90
949;DHT22;461;51.436;7.312;2024-03-22T13:19:20;16.70;99.90
949;DHT22;461;51.436;7.312;2024-03-22T13:21:52;16.30;99.90
949;DHT22;461;51.436;7.312;2024-03-22T13:24:21;16.00;99.90
949;DHT22;461;51.436;7.312;2024-03-22T13:26:47;15.90;99.90
949;DHT22;461;51.436;7.312;2024-03-22T13:29:13;15.70;99.90
949;DHT22;461;51.436;7.312;2024-03-22T13:31:39;15.50;99.90
949;DHT22;461;51.436;7.312;2024-03-22T13:40:58;15.40;99.90
949;DHT22;461;51.436;7.312;2024-03-22T13:43:26;15.50;99.90
949;DHT22;461;51.436;7.312;2024-03-22T13:45:53;15.40;99.90
949;DHT22;461;51.436;7.312;2024-03-22T13:48:23;15.30;99.90
949;DHT22;461;51.436;7.312;2024-03-22T13:50:54;15.20;99.90
949;DHT22;461;51.436;7.312;2024-03-22T13:53:20;15.20;99.90
949;DHT22;461;51.436;7.312;2024-03-22T13:55:48;15.10;99.90
949;DHT22;461;51.436;7.312;2024-03-22T13:58:14;15.10;99.90
949;DHT22;461;51.436;7.312;2024-03-22T14:04:05;15.00;99.90
949;DHT22;461;51.436;7.312;2024-03-22T14:06:31;14.90;99.90
949;DHT22;461;51.436;7.312;2024-03-22T14:08:58;14.90;99.90
949;DHT22;461;51.436;7.312;2024-03-22T14:11:28;14.80;99.90
949;DHT22;461;51.436;7.312;2024-03-22T14:13:56;14.90;99.90
949;DHT22;461;51.436;7.312;2024-03-22T14:19:45;14.80;99.90
949;DHT22;461;51.436;7.312;2024-03-22T14:22:11;14.80;99.90
949;DHT22;461;51.436;7.312;2024-03-22T14:24:37;14.80;99.90
949;DHT22;461;51.436;7.312;2024-03-22T14:27:03;14.80;99.90
949;DHT22;461;51.436;7.312;2024-03-22T14:29:29;14.80;99.90
949;DHT22;461;51.436;7.312;2024-03-22T14:31:55;14.70;99.90
949;DHT22;461;51.436;7.312;2024-03-22T14:34:21;14.80;99.90
949;DHT22;461;51.436;7.312;2024-03-22T14:36:46;14.70;99.90
949;DHT22;461;51.436;7.312;2024-03-22T14:39:12;14.70;99.90
949;DHT22;461;51.436;7.312;2024-03-22T14:41:38;14.70;99.90
949;DHT22;461;51.436;7.312;2024-03-22T14:44:04;14.80;99.90
949;DHT22;461;51.436;7.312;2024-03-22T14:46:29;14.70;99.90
949;DHT22;461;51.436;7.312;2024-03-22T14:48:55;14.70;99.90
949;DHT22;461;51.436;7.312;2024-03-22T14:51:21;14.60;99.90
949;DHT22;461;51.436;7.312;2024-03-22T14:53:47;14.60;99.90
949;DHT22;461;51.436;7.312;2024-03-22T14:56:13;14.50;99.90
949;DHT22;461;51.436;7.312;2024-03-22T14:58:40;14.30;99.90
949;DHT22;461;51.436;7.312;2024-03-22T15:07:49;13.80;99.90
949;DHT22;461;51.436;7.312;2024-03-22T15:10:15;13.60;99.90
949;DHT22;461;51.436;7.312;2024-03-22T15:12:41;13.50;99.90
949;DHT22;461;51.436;7.312;2024-03-22T15:15:07;13.30;99.90
949;DHT22;461;51.436;7.312;2024-03-22T15:17:33;13.20;99.90
949;DHT22;461;51.436;7.312;2024-03-22T15:20:00;13.20;99.90
949;DHT22;461;51.436;7.312;2024-03-22T15:22:26;13.10;99.90
949;DHT22;461;51.436;7.312;2024-03-22T15:24:51;13.10;99.90
949;DHT22;461;51.436;7.312;2024-03-22T15:27:18;13.10;99.90
949;DHT22;461;51.436;7.312;2024-03-22T15:29:44;13.00;99.90
949;DHT22;461;51.436;7.312;2024-03-22T15:32:10;13.10;99.90
949;DHT22;461;51.436;7.312;2024-03-22T15:34:36;13.10;99.90
949;DHT22;461;51.436;7.312;2024-03-22T15:37:02;13.00;99.90
949;DHT22;461;51.436;7.312;2024-03-22T15:39:28;13.00;99.90
949;DHT22;461;51.436;7.312;2024-03-22T15:41:54;13.00;99.90
949;DHT22;461;51.436;7.312;2024-03-22T15:44:20;13.00;99.90
949;DHT22;461;51.436;7.312;2024-03-22T15:46:46;13.10;99.90
949;DHT22;461;51.436;7.312;2024-03-22T15:49:12;13.10;99.90
949;DHT22;461;51.436;7.312;2024-03-22T15:51:38;13.10;99.90
949;DHT22;461;51.436;7.312;2024-03-22T15:54:07;13.00;99.90
949;DHT22;461;51.436;7.312;2024-03-22T15:56:34;12.90;99.90
949;DHT22;461;51.436;7.312;2024-03-22T15:58:59;12.90;99.90
949;DHT22;461;51.436;7.312;2024-03-22T16:01:25;12.80;99.90
949;DHT22;461;51.436;7.312;2024-03-22T16:03:51;12.90;99.90
949;DHT22;461;51.436;7.312;2024-03-22T16:09:39;13.40;99.90
949;DHT22;461;51.436;7.312;2024-03-22T16:18:49;13.50;99.90
949;DHT22;461;51.436;7.312;2024-03-22T16:21:15;13.50;99.90
949;DHT22;461;51.436;7.312;2024-03-22T16:23:41;13.50;99.90
949;DHT22;461;51.436;7.312;2024-03-22T16:26:07;13.50;99.90
949;DHT22;461;51.436;7.312;2024-03-22T16:28:33;13.40;99.90
949;DHT22;461;51.436;7.312;2024-03-22T16:30:58;13.30;99.90
949;DHT22;461;51.436;7.312;2024-03-22T16:33:24;13.40;99.90
949;DHT22;461;51.436;7.312;2024-03-22T16:35:50;13.40;99.90
949;DHT22;461;51.436;7.312;2024-03-22T16:38:16;13.40;99.90
949;DHT22;461;51.436;7.312;2024-03-22T17:11:20;13.50;99.90
949;DHT22;461;51.436;7.312;2024-03-22T17:13:46;13.50;99.90
949;DHT22;461;51.436;7.312;2024-03-22T17:16:11;13.40;99.90
949;DHT22;461;51.436;7.312;2024-03-22T17:18:37;13.40;99.90
949;DHT22;461;51.436;7.312;2024-03-22T17:27:47;12.80;99.90
949;DHT22;461;51.436;7.312;2024-03-22T17:30:13;12.80;99.90
949;DHT22;461;51.436;7.312;2024-03-22T17:32:39;12.80;99.90
949;DHT22;461;51.436;7.312;2024-03-22T17:35:05;12.70;99.90
949;DHT22;461;51.436;7.312;2024-03-22T17:37:30;12.70;99.90
949;DHT22;461;51.436;7.312;2024-03-22T17:39:56;12.60;99.90
949;DHT22;461;51.436;7.312;2024-03-22T17:42:22;12.60;99.90
949;DHT22;461;51.436;7.312;2024-03-22T17:44:49;12.60;99.90
949;DHT22;461;51.436;7.312;2024-03-22T17:47:15;12.60;99.90
949;DHT22;461;51.436;7.312;2024-03-22T17:49:42;12.60;99.90
949;DHT22;461;51.436;7.312;2024-03-22T17:52:08;12.80;99.90
949;DHT22;461;51.436;7.312;2024-03-22T17:54:34;12.70;99.90
949;DHT22;461;51.436;7.312;2024-03-22T17:57:00;12.70;99.90
949;DHT22;461;51.436;7.312;2024-03-22T17:59:26;12.70;99.90
949;DHT22;461;51.436;7.312;2024-03-22T18:01:51;12.80;99.90
949;DHT22;461;51.436;7.312;2024-03-22T18:04:17;12.70;99.90
949;DHT22;461;51.436;7.312;2024-03-22T18:06:43;12.60;99.90
949;DHT22;461;51.436;7.312;2024-03-22T18:09:09;12.70;99.90
949;DHT22;461;51.436;7.312;2024-03-22T18:18:22;12.40;99.90
949;DHT22;461;51.436;7.312;2024-03-22T18:20:48;12.40;99.90
949;DHT22;461;51.436;7.312;2024-03-22T18:23:15;12.40;99.90
949;DHT22;461;51.436;7.312;2024-03-22T18:25:45;12.50;99.90
949;DHT22;461;51.436;7.312;2024-03-22T18:28:13;12.60;99.90
949;DHT22;461;51.436;7.312;2024-03-22T18:30:39;12.70;99.90
949;DHT22;461;51.436;7.312;2024-03-22T18:39:49;12.30;99.90
949;DHT22;461;51.436;7.312;2024-03-22T18:42:15;12.40;99.90
949;DHT22;461;51.436;7.312;2024-03-22T18:44:44;12.20;99.90
949;DHT22;461;51.436;7.312;2024-03-22T18:47:10;12.00;99.90
949;DHT22;461;51.436;7.312;2024-03-22T18:49:37;11.90;99.90
949;DHT22;461;51.436;7.312;2024-03-22T18:52:03;11.60;99.90
949;DHT22;461;51.436;7.312;2024-03-22T18:54:32;11.60;99.90
949;DHT22;461;51.436;7.312;2024-03-22T18:57:01;11.40;99.90
949;DHT22;461;51.436;7.312;2024-03-22T18:59:27;11.30;99.90
949;DHT22;461;51.436;7.312;2024-03-22T19:08:37;11.20;99.90
949;DHT22;461;51.436;7.312;2024-03-22T19:11:03;11.30;99.90
949;DHT22;461;51.436;7.312;2024-03-22T19:13:30;11.30;99.90
949;DHT22;461;51.436;7.312;2024-03-22T19:15:57;11.30;99.90
949;DHT22;461;51.436;7.312;2024-03-22T19:18:23;11.30;99.90
949;DHT22;461;51.436;7.312;2024-03-22T19:20:51;11.30;99.90
949;DHT22;461;51.436;7.312;2024-03-22T19:23:16;11.30;99.90
949;DHT22;461;51.436;7.312;2024-03-22T19:25:43;11.20;99.90
949;DHT22;461;51.436;7.312;2024-03-22T19:28:09;11.20;99.90
949;DHT22;461;51.436;7.312;2024-03-22T19:30:38;11.20;99.90
949;DHT22;461;51.436;7.312;2024-03-22T19:33:04;11.20;99.90
949;DHT22;461;51.436;7.312;2024-03-22T19:55:45;11.00;99.90
949;DHT22;461;51.436;7.312;2024-03-22T19:58:11;11.00;99.90
949;DHT22;461;51.436;7.312;2024-03-22T20:07:21;10.90;99.90
949;DHT22;461;51.436;7.312;2024-03-22T20:09:46;10.90;99.90
949;DHT22;461;51.436;7.312;2024-03-22T20:18:56;10.90;99.90
949;DHT22;461;51.436;7.312;2024-03-22T20:21:22;10.90;99.90
949;DHT22;461;51.436;7.312;2024-03-22T20:23:48;10.80;99.90
949;DHT22;461;51.436;7.312;2024-03-22T20:26:14;10.80;99.90
949;DHT22;461;51.436;7.312;2024-03-22T20:28:40;10.80;99.90
949;DHT22;461;51.436;7.312;2024-03-22T20:31:08;10.80;99.90
949;DHT22;461;51.436;7.312;2024-03-22T20:33:35;10.80;99.90
949;DHT22;461;51.436;7.312;2024-03-22T20:36:01;10.70;99.90
